createdAt,value
2019-04-03T00:00:44.479Z,77.41
2019-04-03T00:01:44.426Z,77.41
2019-04-03T00:02:44.412Z,77.41
2019-04-03T00:03:44.404Z,76.93
2019-04-03T00:04:44.395Z,77.45
2019-04-03T00:05:44.425Z,77.00
2019-04-03T00:06:44.401Z,76.93
2019-04-03T00:07:44.359Z,77.41
2019-04-03T00:08:44.351Z,77.86
2019-04-03T00:09:44.451Z,77.96
2019-04-03T00:10:44.339Z,78.17
2019-04-03T00:11:44.362Z,78.37
2019-04-03T00:12:44.329Z,77.96
2019-04-03T00:13:44.357Z,77.89
2019-04-03T00:14:44.282Z,78.30
2019-04-03T00:15:44.763Z,78.00
2019-04-03T00:16:45.487Z,78.61
2019-04-03T00:17:45.982Z,78.20
2019-04-03T00:18:46.783Z,78.30
2019-04-03T00:19:45.773Z,78.30
2019-04-03T00:20:44.217Z,78.10
2019-04-03T00:21:44.205Z,78.41
2019-04-03T00:22:46.078Z,78.20
2019-04-03T00:23:44.220Z,78.30
2019-04-03T00:24:44.225Z,78.51
2019-04-03T00:25:44.163Z,78.51
2019-04-03T00:26:44.147Z,78.61
2019-04-03T00:27:44.140Z,78.75
2019-04-03T00:28:44.149Z,78.55
2019-04-03T00:29:44.143Z,79.27
2019-04-03T00:30:44.108Z,79.06
2019-04-03T00:31:44.092Z,79.27
2019-04-03T00:32:44.079Z,79.79
2019-04-03T00:33:44.096Z,79.37
2019-04-03T00:34:44.179Z,79.82
2019-04-03T00:35:44.080Z,79.72
2019-04-03T00:36:44.045Z,79.61
2019-04-03T00:37:44.030Z,79.72
2019-04-03T00:38:44.039Z,79.82
2019-04-03T00:39:44.015Z,79.51
2019-04-03T00:40:44.009Z,79.51
2019-04-03T00:41:44.002Z,79.86
2019-04-03T00:42:43.991Z,79.86
2019-04-03T00:43:43.959Z,79.96
2019-04-03T00:44:43.958Z,80.37
2019-04-03T00:45:43.948Z,80.37
2019-04-03T00:46:43.958Z,80.37
2019-04-03T00:47:43.922Z,80.37
2019-04-03T00:48:43.994Z,80.37
2019-04-03T00:49:43.917Z,80.68
2019-04-03T00:50:43.886Z,80.37
2019-04-03T00:51:43.893Z,80.93
2019-04-03T00:52:43.877Z,80.41
2019-04-03T00:53:43.875Z,80.62
2019-04-03T00:54:43.845Z,80.72
2019-04-03T00:55:43.840Z,81.13
2019-04-03T00:56:43.823Z,80.82
2019-04-03T00:57:43.812Z,80.82
2019-04-03T00:58:43.805Z,80.62
2019-04-03T00:59:43.792Z,80.72
2019-04-03T01:00:43.824Z,81.03
2019-04-03T01:01:43.762Z,81.13
2019-04-03T01:02:43.958Z,80.96
2019-04-03T01:03:43.747Z,81.48
2019-04-03T01:04:43.752Z,81.37
2019-04-03T01:05:43.846Z,81.68
2019-04-03T01:06:43.718Z,81.48
2019-04-03T01:07:43.692Z,81.89
2019-04-03T01:08:43.707Z,82.30
2019-04-03T01:09:43.685Z,82.10
2019-04-03T01:10:43.681Z,82.10
2019-04-03T01:11:43.699Z,82.20
2019-04-03T01:12:43.699Z,81.82
2019-04-03T01:13:43.632Z,81.82
2019-04-03T01:14:43.682Z,81.93
2019-04-03T01:15:43.631Z,81.51
2019-04-03T01:16:43.712Z,81.62
2019-04-03T01:17:43.594Z,81.48
2019-04-03T01:18:43.572Z,81.27
2019-04-03T01:19:43.561Z,80.86
2019-04-03T01:20:43.570Z,81.27
2019-04-03T01:21:43.555Z,80.96
2019-04-03T01:22:43.534Z,80.44
2019-04-03T01:23:43.530Z,80.44
2019-04-03T01:24:43.508Z,80.55
2019-04-03T01:25:43.507Z,79.93
2019-04-03T01:26:43.507Z,79.45
2019-04-03T01:27:43.517Z,80.38
2019-04-03T01:28:43.462Z,80.34
2019-04-03T01:29:43.450Z,80.14
2019-04-03T01:30:44.216Z,80.76
2019-04-03T01:31:44.905Z,80.44
2019-04-03T01:32:46.129Z,79.41
2019-04-03T01:33:46.079Z,79.52
2019-04-03T01:34:43.393Z,79.00
2019-04-03T01:35:43.381Z,79.31
2019-04-03T01:36:43.506Z,78.28
2019-04-03T01:37:43.372Z,78.80
2019-04-03T01:38:43.487Z,78.49
2019-04-03T01:39:44.079Z,78.28
2019-04-03T01:40:43.329Z,78.18
2019-04-03T01:41:43.442Z,78.28
2019-04-03T01:42:43.337Z,76.94
2019-04-03T01:43:43.319Z,77.15
2019-04-03T01:44:43.319Z,77.45
2019-04-03T01:45:43.316Z,77.35
2019-04-03T01:46:43.347Z,77.25
2019-04-03T01:47:43.305Z,77.73
2019-04-03T01:48:43.236Z,76.90
2019-04-03T01:49:43.255Z,76.18
2019-04-03T01:50:43.251Z,75.56
2019-04-03T01:51:43.238Z,75.81
2019-04-03T01:52:43.323Z,76.70
2019-04-03T01:53:43.183Z,76.49
2019-04-03T01:54:43.171Z,76.18
2019-04-03T01:55:43.189Z,76.29
2019-04-03T01:56:43.174Z,76.39
2019-04-03T01:57:43.168Z,76.53
2019-04-03T01:58:43.122Z,75.98
2019-04-03T01:59:43.114Z,76.08
2019-04-03T02:00:43.153Z,76.18
2019-04-03T02:01:43.104Z,75.77
2019-04-03T02:02:43.098Z,75.77
2019-04-03T02:03:43.103Z,75.98
2019-04-03T02:04:43.124Z,76.12
2019-04-03T02:05:43.830Z,76.29
2019-04-03T02:06:43.894Z,75.67
2019-04-03T02:07:44.711Z,76.21
2019-04-03T02:08:44.885Z,75.91
2019-04-03T02:09:43.037Z,75.18
2019-04-03T02:10:43.174Z,75.67
2019-04-03T02:11:42.987Z,76.32
2019-04-03T02:12:43.014Z,76.59
2019-04-03T02:13:42.990Z,76.63
2019-04-03T02:14:43.173Z,76.90
2019-04-03T02:15:42.981Z,76.80
2019-04-03T02:16:42.925Z,77.04
2019-04-03T02:17:42.912Z,76.90
2019-04-03T02:18:42.910Z,76.73
2019-04-03T02:19:42.916Z,76.70
2019-04-03T02:20:42.969Z,76.73
2019-04-03T02:21:42.885Z,76.84
2019-04-03T02:22:42.858Z,76.80
2019-04-03T02:23:42.846Z,76.84
2019-04-03T02:24:42.879Z,76.80
2019-04-03T02:25:42.836Z,77.01
2019-04-03T02:26:42.866Z,76.80
2019-04-03T02:27:43.573Z,77.11
2019-04-03T02:28:42.794Z,77.22
2019-04-03T02:29:42.798Z,76.08
2019-04-03T02:30:46.005Z,76.18
2019-04-03T02:31:43.191Z,76.80
2019-04-03T02:32:42.745Z,76.29
2019-04-03T02:33:42.787Z,75.87
2019-04-03T02:34:43.020Z,76.70
2019-04-03T02:35:42.737Z,76.76
2019-04-03T02:36:44.270Z,76.97
2019-04-03T02:37:43.095Z,76.15
2019-04-03T02:38:42.678Z,75.94
2019-04-03T02:39:42.681Z,76.04
2019-04-03T02:40:42.659Z,76.15
2019-04-03T02:41:42.679Z,75.53
2019-04-03T02:42:42.678Z,75.63
2019-04-03T02:43:45.381Z,76.15
2019-04-03T02:44:42.622Z,75.94
2019-04-03T02:45:42.719Z,75.73
2019-04-03T02:46:42.617Z,75.63
2019-04-03T02:47:42.598Z,75.53
2019-04-03T02:48:42.581Z,76.25
2019-04-03T02:49:43.634Z,76.15
2019-04-03T02:50:46.655Z,76.46
2019-04-03T02:51:42.620Z,75.63
2019-04-03T02:52:42.548Z,75.70
2019-04-03T02:53:42.521Z,76.42
2019-04-03T02:54:42.521Z,76.15
2019-04-03T02:55:42.500Z,76.15
2019-04-03T02:56:44.462Z,76.21
2019-04-03T02:57:42.478Z,76.21
2019-04-03T02:58:42.553Z,76.76
2019-04-03T02:59:42.480Z,76.56
2019-04-03T03:00:42.460Z,76.87
2019-04-03T03:01:42.750Z,76.93
2019-04-03T03:02:45.417Z,77.28
2019-04-03T03:03:42.400Z,77.38
2019-04-03T03:04:42.412Z,77.38
2019-04-03T03:05:42.396Z,78.00
2019-04-03T03:06:42.602Z,78.00
2019-04-03T03:07:42.357Z,78.21
2019-04-03T03:08:42.729Z,78.34
2019-04-03T03:09:45.925Z,77.11
2019-04-03T03:10:42.337Z,76.76
2019-04-03T03:11:42.335Z,76.46
2019-04-03T03:12:42.306Z,76.25
2019-04-03T03:13:42.307Z,75.84
2019-04-03T03:14:42.282Z,76.25
2019-04-03T03:15:43.926Z,76.21
2019-04-03T03:16:42.268Z,75.81
2019-04-03T03:17:42.278Z,75.53
2019-04-03T03:18:42.235Z,75.90
2019-04-03T03:19:42.235Z,74.77
2019-04-03T03:20:42.222Z,74.88
2019-04-03T03:21:44.740Z,74.88
2019-04-03T03:22:42.294Z,74.22
2019-04-03T03:23:42.215Z,74.46
2019-04-03T03:24:42.209Z,73.91
2019-04-03T03:25:42.373Z,74.53
2019-04-03T03:26:42.144Z,74.67
2019-04-03T03:27:42.714Z,74.63
2019-04-03T03:28:45.600Z,75.05
2019-04-03T03:29:42.133Z,74.26
2019-04-03T03:30:54.402Z,74.46
2019-04-03T03:32:06.369Z,74.02
2019-04-03T03:32:43.389Z,74.74
2019-04-03T03:33:42.533Z,74.22
2019-04-03T03:34:55.115Z,73.61
2019-04-03T03:35:46.852Z,73.91
2019-04-03T03:36:42.573Z,73.91
2019-04-03T03:37:42.021Z,73.50
2019-04-03T03:38:42.026Z,73.71
2019-04-03T03:39:43.498Z,73.50
2019-04-03T03:40:42.004Z,74.12
2019-04-03T03:41:42.018Z,73.81
2019-04-03T03:42:41.967Z,74.12
2019-04-03T03:43:41.957Z,74.12
2019-04-03T03:44:45.607Z,74.63
2019-04-03T03:45:41.937Z,75.05
2019-04-03T03:46:41.955Z,74.63
2019-04-03T03:47:42.444Z,74.33
2019-04-03T03:48:43.585Z,74.53
2019-04-03T03:49:41.888Z,74.74
2019-04-03T03:50:41.885Z,74.84
2019-04-03T03:51:41.878Z,74.22
2019-04-03T03:52:41.921Z,74.53
2019-04-03T03:53:44.531Z,74.33
2019-04-03T03:54:41.845Z,74.22
2019-04-03T03:55:42.031Z,74.60
2019-04-03T03:56:41.827Z,74.50
2019-04-03T03:57:41.909Z,74.60
2019-04-03T03:58:44.754Z,73.81
2019-04-03T03:59:41.893Z,74.19
2019-04-03T04:00:41.981Z,74.29
2019-04-03T04:01:41.752Z,74.60
2019-04-03T04:02:44.294Z,75.01
2019-04-03T04:03:42.371Z,75.01
2019-04-03T04:04:41.747Z,74.08
2019-04-03T04:05:41.802Z,74.50
2019-04-03T04:06:41.734Z,74.08
2019-04-03T04:07:41.685Z,74.74
2019-04-03T04:08:44.167Z,74.33
2019-04-03T04:09:41.683Z,75.22
2019-04-03T04:10:41.656Z,74.84
2019-04-03T04:11:41.651Z,75.77
2019-04-03T04:12:42.537Z,74.74
2019-04-03T04:13:41.676Z,75.35
2019-04-03T04:14:41.932Z,75.77
2019-04-03T04:15:41.624Z,75.56
2019-04-03T04:16:41.987Z,75.25
2019-04-03T04:17:41.580Z,76.07
2019-04-03T04:18:41.589Z,75.97
2019-04-03T04:19:41.580Z,75.97
2019-04-03T04:20:41.557Z,75.87
2019-04-03T04:21:44.032Z,75.97
2019-04-03T04:22:41.764Z,75.97
2019-04-03T04:23:41.785Z,76.07
2019-04-03T04:24:41.630Z,76.07
2019-04-03T04:25:43.531Z,76.21
2019-04-03T04:26:41.666Z,76.49
2019-04-03T04:27:41.491Z,76.18
2019-04-03T04:28:41.457Z,76.21
2019-04-03T04:29:42.175Z,76.53
2019-04-03T04:30:42.511Z,76.93
2019-04-03T04:31:43.344Z,76.53
2019-04-03T04:32:41.431Z,76.73
2019-04-03T04:33:41.422Z,76.73
2019-04-03T04:34:41.616Z,76.63
2019-04-03T04:35:41.395Z,77.25
2019-04-03T04:36:41.364Z,76.83
2019-04-03T04:37:41.360Z,76.97
2019-04-03T04:38:41.371Z,76.76
2019-04-03T04:39:41.338Z,76.73
2019-04-03T04:40:41.499Z,76.76
2019-04-03T04:41:41.443Z,77.48
2019-04-03T04:42:41.303Z,78.11
2019-04-03T04:43:41.299Z,78.00
2019-04-03T04:44:41.626Z,78.31
2019-04-03T04:45:42.702Z,77.90
2019-04-03T04:46:43.695Z,77.18
2019-04-03T04:47:41.332Z,77.80
2019-04-03T04:48:41.248Z,78.31
2019-04-03T04:49:41.260Z,78.04
2019-04-03T04:50:41.244Z,78.11
2019-04-03T04:51:41.391Z,78.00
2019-04-03T04:52:41.218Z,78.14
2019-04-03T04:53:41.375Z,78.45
2019-04-03T04:54:42.886Z,78.24
2019-04-03T04:55:41.170Z,78.45
2019-04-03T04:56:41.143Z,78.55
2019-04-03T04:57:41.415Z,78.04
2019-04-03T04:58:43.029Z,78.34
2019-04-03T04:59:41.279Z,78.14
2019-04-03T05:00:41.130Z,77.42
2019-04-03T05:01:41.113Z,78.34
2019-04-03T05:02:41.243Z,78.14
2019-04-03T05:03:41.067Z,78.31
2019-04-03T05:04:41.077Z,78.14
2019-04-03T05:05:41.071Z,78.14
2019-04-03T05:06:41.053Z,77.48
2019-04-03T05:07:41.043Z,78.34
2019-04-03T05:08:41.009Z,78.34
2019-04-03T05:09:41.050Z,78.31
2019-04-03T05:10:40.985Z,77.69
2019-04-03T05:11:40.999Z,77.38
2019-04-03T05:12:44.777Z,77.38
2019-04-03T05:13:41.188Z,77.42
2019-04-03T05:14:41.160Z,77.18
2019-04-03T05:15:40.932Z,77.31
2019-04-03T05:16:41.187Z,77.42
2019-04-03T05:17:40.926Z,77.62
2019-04-03T05:18:40.911Z,77.31
2019-04-03T05:19:40.919Z,77.52
2019-04-03T05:20:40.884Z,78.34
2019-04-03T05:21:40.916Z,78.24
2019-04-03T05:22:41.043Z,78.28
2019-04-03T05:23:40.854Z,78.04
2019-04-03T05:24:40.851Z,78.49
2019-04-03T05:25:41.042Z,78.55
2019-04-03T05:26:40.810Z,78.49
2019-04-03T05:27:40.820Z,78.45
2019-04-03T05:28:53.283Z,78.18
2019-04-03T05:29:40.794Z,78.69
2019-04-03T05:30:40.923Z,78.76
2019-04-03T05:31:40.781Z,78.97
2019-04-03T05:32:41.268Z,78.76
2019-04-03T05:33:42.207Z,78.76
2019-04-03T05:34:43.521Z,78.86
2019-04-03T05:35:40.719Z,78.66
2019-04-03T05:36:40.707Z,78.14
2019-04-03T05:37:40.686Z,78.00
2019-04-03T05:38:40.791Z,78.11
2019-04-03T05:39:40.663Z,78.55
2019-04-03T05:40:40.653Z,78.83
2019-04-03T05:41:40.650Z,79.03
2019-04-03T05:42:40.646Z,79.17
2019-04-03T05:43:40.655Z,79.34
2019-04-03T05:44:40.913Z,79.44
2019-04-03T05:45:41.756Z,79.03
2019-04-03T05:46:40.607Z,78.62
2019-04-03T05:47:40.588Z,78.21
2019-04-03T05:48:40.587Z,77.97
2019-04-03T05:49:40.555Z,77.66
2019-04-03T05:50:40.598Z,77.45
2019-04-03T05:51:40.532Z,77.45
2019-04-03T05:52:40.552Z,77.35
2019-04-03T05:53:40.526Z,77.45
2019-04-03T05:54:40.527Z,76.70
2019-04-03T05:55:41.434Z,76.70
2019-04-03T05:56:42.504Z,76.79
2019-04-03T05:57:40.464Z,76.70
2019-04-03T05:58:40.720Z,76.28
2019-04-03T05:59:43.335Z,76.39
2019-04-03T06:00:40.428Z,77.00
2019-04-03T06:01:42.602Z,76.79
2019-04-03T06:02:40.541Z,77.21
2019-04-03T06:03:44.508Z,76.28
2019-04-03T06:04:41.499Z,75.97
2019-04-03T06:05:41.812Z,76.56
2019-04-03T06:06:40.394Z,78.03
2019-04-03T06:07:40.911Z,78.86
2019-04-03T06:08:40.343Z,79.44
2019-04-03T06:09:40.329Z,80.16
2019-04-03T06:10:40.333Z,79.68
2019-04-03T06:11:41.160Z,78.14
2019-04-03T06:12:40.521Z,78.24
2019-04-03T06:13:40.287Z,78.30
2019-04-03T06:14:40.308Z,77.38
2019-04-03T06:15:40.270Z,78.30
2019-04-03T06:16:40.375Z,78.20
2019-04-03T06:17:40.257Z,77.48
2019-04-03T06:18:40.307Z,76.93
2019-04-03T06:19:40.306Z,75.49
2019-04-03T06:20:42.568Z,75.18
2019-04-03T06:21:40.306Z,75.49
2019-04-03T06:22:40.190Z,75.87
2019-04-03T06:23:40.214Z,75.80
2019-04-03T06:24:40.165Z,75.59
2019-04-03T06:25:40.150Z,74.53
2019-04-03T06:26:40.146Z,75.08
2019-04-03T06:27:42.166Z,74.63
2019-04-03T06:28:42.404Z,73.91
2019-04-03T06:29:40.343Z,73.61
2019-04-03T06:30:40.090Z,74.12
2019-04-03T06:31:40.079Z,74.19
2019-04-03T06:32:40.075Z,73.57
2019-04-03T06:33:40.091Z,73.47
2019-04-03T06:34:42.687Z,72.92
2019-04-03T06:35:40.079Z,72.31
2019-04-03T06:36:40.023Z,71.69
2019-04-03T06:37:40.012Z,71.48
2019-04-03T06:38:40.010Z,71.28
2019-04-03T06:39:40.011Z,70.94
2019-04-03T06:40:40.011Z,70.63
2019-04-03T06:41:41.833Z,70.63
2019-04-03T06:42:39.974Z,70.12
2019-04-03T06:43:39.945Z,70.22
2019-04-03T06:44:39.961Z,69.57
2019-04-03T06:45:42.830Z,69.67
2019-04-03T06:46:40.118Z,70.29
2019-04-03T06:47:40.085Z,69.98
2019-04-03T06:48:39.900Z,69.16
2019-04-03T06:49:41.001Z,68.96
2019-04-03T06:50:40.147Z,69.37
2019-04-03T06:51:40.054Z,69.98
2019-04-03T06:52:39.858Z,69.54
2019-04-03T06:53:39.860Z,69.78
2019-04-03T06:54:39.836Z,70.15
2019-04-03T06:55:40.024Z,70.18
2019-04-03T06:56:41.132Z,69.64
2019-04-03T06:57:40.259Z,70.29
2019-04-03T06:58:40.290Z,70.15
2019-04-03T06:59:39.768Z,70.67
2019-04-03T07:00:39.987Z,70.77
2019-04-03T07:01:39.750Z,70.26
2019-04-03T07:02:39.810Z,70.67
2019-04-03T07:03:39.739Z,71.18
2019-04-03T07:04:39.835Z,70.67
2019-04-03T07:05:41.644Z,70.67
2019-04-03T07:06:39.965Z,70.87
2019-04-03T07:07:39.685Z,70.97
2019-04-03T07:08:41.049Z,70.87
2019-04-03T07:09:39.693Z,70.22
2019-04-03T07:10:40.392Z,70.43
2019-04-03T07:11:39.679Z,70.84
2019-04-03T07:12:39.722Z,70.94
2019-04-03T07:13:39.641Z,70.84
2019-04-03T07:14:39.622Z,70.73
2019-04-03T07:15:39.647Z,71.22
2019-04-03T07:16:39.584Z,70.19
2019-04-03T07:17:39.579Z,70.29
2019-04-03T07:18:39.557Z,70.50
2019-04-03T07:19:40.218Z,70.29
2019-04-03T07:20:39.719Z,70.29
2019-04-03T07:21:39.542Z,69.37
2019-04-03T07:22:39.728Z,69.44
2019-04-03T07:23:39.557Z,70.29
2019-04-03T07:24:39.494Z,70.26
2019-04-03T07:25:39.490Z,69.95
2019-04-03T07:26:39.493Z,69.61
2019-04-03T07:27:41.826Z,69.41
2019-04-03T07:28:41.635Z,69.20
2019-04-03T07:29:39.703Z,69.20
2019-04-03T07:30:39.423Z,69.79
2019-04-03T07:31:39.427Z,69.07
2019-04-03T07:32:39.420Z,67.64
2019-04-03T07:33:39.698Z,67.91
2019-04-03T07:34:39.609Z,67.94
2019-04-03T07:35:40.529Z,68.01
2019-04-03T07:36:41.167Z,67.81
2019-04-03T07:37:39.470Z,67.71
2019-04-03T07:38:39.349Z,66.86
2019-04-03T07:39:39.484Z,66.86
2019-04-03T07:40:39.313Z,66.75
2019-04-03T07:41:41.051Z,66.66
2019-04-03T07:42:39.292Z,67.07
2019-04-03T07:43:39.287Z,67.44
2019-04-03T07:44:39.435Z,66.11
2019-04-03T07:45:39.294Z,65.91
2019-04-03T07:46:39.246Z,66.31
2019-04-03T07:47:39.234Z,66.21
2019-04-03T07:48:39.339Z,66.11
2019-04-03T07:49:40.123Z,66.01
2019-04-03T07:50:41.069Z,65.80
2019-04-03T07:51:39.234Z,66.42
2019-04-03T07:52:39.191Z,65.98
2019-04-03T07:53:39.168Z,66.39
2019-04-03T07:54:39.249Z,66.49
2019-04-03T07:55:39.157Z,65.77
2019-04-03T07:56:39.155Z,65.98
2019-04-03T07:57:41.012Z,65.26
2019-04-03T07:58:39.127Z,65.37
2019-04-03T07:59:39.319Z,64.86
2019-04-03T08:00:39.266Z,65.88
2019-04-03T08:01:41.299Z,64.93
2019-04-03T08:02:39.216Z,64.83
2019-04-03T08:03:39.186Z,64.72
2019-04-03T08:04:39.046Z,64.83
2019-04-03T08:05:39.045Z,64.39
2019-04-03T08:06:39.370Z,63.57
2019-04-03T08:07:39.312Z,63.57
2019-04-03T08:08:39.534Z,63.37
2019-04-03T08:09:38.994Z,63.03
2019-04-03T08:10:38.990Z,63.16
2019-04-03T08:11:38.968Z,63.13
2019-04-03T08:12:38.975Z,62.42
2019-04-03T08:13:39.198Z,62.52
2019-04-03T08:14:40.480Z,62.52
2019-04-03T08:15:38.923Z,62.93
2019-04-03T08:16:41.953Z,62.73
2019-04-03T08:17:39.173Z,62.21
2019-04-03T08:18:38.895Z,62.39
2019-04-03T08:19:39.068Z,62.70
2019-04-03T08:20:38.869Z,61.57
2019-04-03T08:21:38.857Z,62.49
2019-04-03T08:22:39.111Z,61.95
2019-04-03T08:23:39.176Z,60.93
2019-04-03T08:24:39.699Z,61.14
2019-04-03T08:25:38.834Z,60.73
2019-04-03T08:26:39.152Z,60.73
2019-04-03T08:27:39.209Z,60.73
2019-04-03T08:28:38.799Z,61.78
2019-04-03T08:29:39.367Z,61.68
2019-04-03T08:30:39.680Z,61.47
2019-04-03T08:31:38.767Z,61.27
2019-04-03T08:32:38.738Z,61.27
2019-04-03T08:33:38.722Z,61.65
2019-04-03T08:34:38.761Z,61.16
2019-04-03T08:35:38.721Z,61.24
2019-04-03T08:36:39.805Z,61.34
2019-04-03T08:37:41.169Z,61.65
2019-04-03T08:38:38.732Z,59.78
2019-04-03T08:39:38.678Z,58.97
2019-04-03T08:40:38.654Z,59.17
2019-04-03T08:41:38.873Z,58.97
2019-04-03T08:42:38.652Z,60.09
2019-04-03T08:43:38.941Z,60.30
2019-04-03T08:44:38.791Z,60.16
2019-04-03T08:45:39.282Z,59.45
2019-04-03T08:46:38.726Z,59.55
2019-04-03T08:47:38.614Z,59.14
2019-04-03T08:48:38.573Z,59.25
2019-04-03T08:49:39.137Z,59.22
2019-04-03T08:50:38.702Z,58.71
2019-04-03T08:51:38.522Z,58.81
2019-04-03T08:52:38.562Z,58.51
2019-04-03T08:53:39.675Z,58.28
2019-04-03T08:54:41.258Z,57.69
2019-04-03T08:55:38.828Z,57.29
2019-04-03T08:56:38.471Z,57.46
2019-04-03T08:57:38.718Z,57.08
2019-04-03T08:58:38.459Z,56.95
2019-04-03T08:59:38.445Z,58.17
2019-04-03T09:00:38.452Z,57.87
2019-04-03T09:01:39.630Z,57.06
2019-04-03T09:02:38.398Z,57.06
2019-04-03T09:03:38.662Z,57.54
2019-04-03T09:04:38.403Z,56.82
2019-04-03T09:05:38.388Z,57.74
2019-04-03T09:06:38.424Z,54.87
2019-04-03T09:07:38.400Z,54.97
2019-04-03T09:08:38.335Z,54.87
2019-04-03T09:09:38.394Z,56.60
2019-04-03T09:10:38.321Z,55.07
2019-04-03T09:11:38.323Z,53.04
2019-04-03T09:12:38.945Z,54.28
2019-04-03T09:13:38.275Z,53.98
2019-04-03T09:14:38.293Z,53.57
2019-04-03T09:15:38.484Z,53.27
2019-04-03T09:16:38.259Z,54.05
2019-04-03T09:17:38.258Z,53.24
2019-04-03T09:18:38.721Z,53.34
2019-04-03T09:19:40.618Z,53.93
2019-04-03T09:20:38.196Z,54.03
2019-04-03T09:21:39.141Z,53.93
2019-04-03T09:22:38.191Z,54.44
2019-04-03T09:23:38.162Z,54.72
2019-04-03T09:24:38.189Z,53.91
2019-04-03T09:25:38.183Z,54.41
2019-04-03T09:26:38.313Z,55.02
2019-04-03T09:27:40.364Z,54.51
2019-04-03T09:28:41.113Z,54.61
2019-04-03T09:29:38.089Z,53.58
2019-04-03T09:30:38.090Z,52.97
2019-04-03T09:31:38.079Z,54.59
2019-04-03T09:32:38.063Z,53.85
2019-04-03T09:33:38.054Z,53.27
2019-04-03T09:34:38.142Z,53.06
2019-04-03T09:35:38.065Z,53.96
2019-04-03T09:36:38.016Z,54.66
2019-04-03T09:37:38.472Z,53.55
2019-04-03T09:38:40.613Z,53.04
2019-04-03T09:39:38.000Z,52.81
2019-04-03T09:40:38.323Z,53.22
2019-04-03T09:41:38.002Z,53.12
2019-04-03T09:42:37.950Z,54.84
2019-04-03T09:43:39.924Z,52.61
2019-04-03T09:44:37.931Z,52.69
2019-04-03T09:45:37.958Z,52.69
2019-04-03T09:46:37.924Z,53.50
2019-04-03T09:47:37.891Z,52.08
2019-04-03T09:48:38.019Z,52.66
2019-04-03T09:49:40.199Z,52.66
2019-04-03T09:50:37.886Z,51.42
2019-04-03T09:51:38.124Z,50.61
2019-04-03T09:52:46.097Z,50.82
2019-04-03T09:53:38.849Z,50.54
2019-04-03T09:54:37.818Z,50.92
2019-04-03T09:55:38.265Z,51.53
2019-04-03T09:56:54.880Z,50.82
2019-04-03T09:57:37.795Z,51.02
2019-04-03T09:58:37.770Z,49.38
2019-04-03T09:59:38.551Z,49.17
2019-04-03T10:00:37.743Z,49.58
2019-04-03T10:01:37.744Z,48.87
2019-04-03T10:02:37.796Z,48.77
2019-04-03T10:03:37.721Z,48.67
2019-04-03T10:04:37.699Z,48.90
2019-04-03T10:05:37.692Z,49.19
2019-04-03T10:06:37.679Z,49.70
2019-04-03T10:07:37.709Z,49.78
2019-04-03T10:08:38.052Z,48.97
2019-04-03T10:09:39.057Z,47.55
2019-04-03T10:10:37.977Z,47.66
2019-04-03T10:11:39.231Z,47.25
2019-04-03T10:12:37.980Z,47.25
2019-04-03T10:13:37.638Z,48.46
2019-04-03T10:14:37.606Z,47.75
2019-04-03T10:15:37.603Z,48.67
2019-04-03T10:16:37.601Z,46.14
2019-04-03T10:17:38.600Z,45.61
2019-04-03T10:18:39.078Z,47.13
2019-04-03T10:19:37.748Z,45.94
2019-04-03T10:20:37.720Z,45.91
2019-04-03T10:21:37.537Z,45.33
2019-04-03T10:22:37.536Z,45.45
2019-04-03T10:23:37.583Z,47.17
2019-04-03T10:24:37.555Z,47.27
2019-04-03T10:25:38.041Z,48.00
2019-04-03T10:26:39.458Z,47.90
2019-04-03T10:27:37.443Z,48.71
2019-04-03T10:28:37.765Z,50.03
2019-04-03T10:29:37.641Z,49.83
2019-04-03T10:30:37.409Z,48.79
2019-04-03T10:31:37.399Z,49.30
2019-04-03T10:32:37.397Z,49.68
2019-04-03T10:33:37.473Z,48.77
2019-04-03T10:34:37.379Z,48.69
2019-04-03T10:35:39.296Z,48.39
2019-04-03T10:36:37.440Z,47.07
2019-04-03T10:37:37.339Z,47.05
2019-04-03T10:38:37.372Z,45.73
2019-04-03T10:39:40.065Z,46.44
2019-04-03T10:40:37.568Z,46.24
2019-04-03T10:41:37.287Z,48.77
2019-04-03T10:42:37.274Z,47.13
2019-04-03T10:43:37.708Z,45.81
2019-04-03T10:44:37.271Z,44.48
2019-04-03T10:45:37.239Z,45.59
2019-04-03T10:46:37.234Z,47.31
2019-04-03T10:47:42.419Z,44.68
2019-04-03T10:48:37.211Z,44.88
2019-04-03T10:49:37.231Z,44.48
2019-04-03T10:50:38.275Z,44.88
2019-04-03T10:51:37.428Z,44.88
2019-04-03T10:52:37.164Z,44.98
2019-04-03T10:53:37.152Z,44.37
2019-04-03T10:54:38.430Z,45.59
2019-04-03T10:55:37.159Z,46.09
2019-04-03T10:56:37.175Z,46.91
2019-04-03T10:57:37.189Z,44.88
2019-04-03T10:58:38.432Z,45.29
2019-04-03T10:59:37.087Z,46.20
2019-04-03T11:00:37.089Z,46.20
2019-04-03T11:01:37.092Z,46.17
2019-04-03T11:02:37.092Z,45.97
2019-04-03T11:03:37.038Z,44.46
2019-04-03T11:04:37.316Z,46.98
2019-04-03T11:05:37.233Z,47.08
2019-04-03T11:06:37.864Z,45.97
2019-04-03T11:07:37.032Z,45.97
2019-04-03T11:08:37.030Z,44.64
2019-04-03T11:09:36.971Z,45.04
2019-04-03T11:10:36.962Z,46.86
2019-04-03T11:11:37.694Z,45.85
2019-04-03T11:12:36.961Z,43.30
2019-04-03T11:13:37.009Z,45.53
2019-04-03T11:14:39.005Z,45.42
2019-04-03T11:15:36.902Z,45.53
2019-04-03T11:16:38.925Z,44.90
2019-04-03T11:17:37.372Z,43.28
2019-04-03T11:18:37.193Z,43.08
2019-04-03T11:19:37.413Z,42.68
2019-04-03T11:20:37.218Z,43.28
2019-04-03T11:21:36.841Z,41.14
2019-04-03T11:22:40.384Z,40.64
2019-04-03T11:23:43.524Z,40.64
2019-04-03T11:24:39.760Z,40.64
2019-04-03T11:25:36.836Z,40.03
2019-04-03T11:26:37.203Z,41.47
2019-04-03T11:27:45.606Z,40.76
2019-04-03T11:28:38.629Z,41.56
2019-04-03T11:29:36.795Z,41.47
2019-04-03T11:30:36.762Z,40.94
2019-04-03T11:31:41.482Z,43.99
2019-04-03T11:32:36.786Z,42.38
2019-04-03T11:33:36.708Z,41.27
2019-04-03T11:34:36.811Z,41.14
2019-04-03T11:35:37.114Z,40.64
2019-04-03T11:36:37.004Z,40.84
2019-04-03T11:37:36.717Z,41.14
2019-04-03T11:38:36.713Z,41.35
2019-04-03T11:39:37.533Z,41.13
2019-04-03T11:40:36.801Z,41.53
2019-04-03T11:41:36.690Z,41.13
2019-04-03T11:42:36.648Z,41.41
2019-04-03T11:43:36.957Z,41.00
2019-04-03T11:44:37.070Z,40.40
2019-04-03T11:45:36.596Z,38.69
2019-04-03T11:46:36.618Z,40.60
2019-04-03T11:47:37.037Z,39.98
2019-04-03T11:48:36.826Z,39.28
2019-04-03T11:49:36.587Z,40.78
2019-04-03T11:50:38.893Z,40.78
2019-04-03T11:51:36.526Z,40.99
2019-04-03T11:52:36.505Z,40.28
2019-04-03T11:53:36.861Z,38.37
2019-04-03T11:54:37.007Z,39.37
2019-04-03T11:55:36.762Z,38.37
2019-04-03T11:56:36.450Z,40.38
2019-04-03T11:57:36.436Z,38.07
2019-04-03T11:58:36.721Z,38.07
2019-04-03T11:59:36.431Z,38.07
2019-04-03T12:00:36.427Z,38.59
2019-04-03T12:01:36.447Z,40.89
2019-04-03T12:02:38.298Z,40.69
2019-04-03T12:03:36.446Z,40.48
2019-04-03T12:04:36.379Z,37.34
2019-04-03T12:05:36.366Z,36.66
2019-04-03T12:06:36.423Z,36.66
2019-04-03T12:07:36.328Z,37.66
2019-04-03T12:08:36.339Z,36.64
2019-04-03T12:09:36.343Z,37.45
2019-04-03T12:10:36.312Z,38.05
2019-04-03T12:11:38.415Z,35.91
2019-04-03T12:12:36.269Z,35.41
2019-04-03T12:13:36.548Z,36.62
2019-04-03T12:14:36.251Z,36.92
2019-04-03T12:15:36.255Z,37.12
2019-04-03T12:16:36.244Z,37.83
2019-04-03T12:17:36.226Z,38.33
2019-04-03T12:18:36.233Z,38.33
2019-04-03T12:19:37.128Z,37.12
2019-04-03T12:20:36.444Z,37.23
2019-04-03T12:21:36.174Z,37.45
2019-04-03T12:22:36.295Z,38.55
2019-04-03T12:23:38.783Z,37.74
2019-04-03T12:24:36.266Z,38.05
2019-04-03T12:25:38.195Z,37.96
2019-04-03T12:26:36.116Z,38.77
2019-04-03T12:27:36.713Z,37.76
2019-04-03T12:28:36.276Z,39.17
2019-04-03T12:29:36.391Z,38.67
2019-04-03T12:30:36.078Z,39.98
2019-04-03T12:31:36.059Z,38.97
2019-04-03T12:32:40.893Z,37.56
2019-04-03T12:33:36.056Z,37.76
2019-04-03T12:34:37.577Z,37.74
2019-04-03T12:35:36.286Z,38.05
2019-04-03T12:36:36.017Z,37.65
2019-04-03T12:37:36.045Z,38.23
2019-04-03T12:38:36.344Z,36.92
2019-04-03T12:39:36.255Z,36.00
2019-04-03T12:40:36.003Z,36.70
2019-04-03T12:41:36.835Z,36.40
2019-04-03T12:42:35.947Z,36.89
2019-04-03T12:43:36.167Z,36.79
2019-04-03T12:44:35.920Z,36.67
2019-04-03T12:45:35.926Z,35.38
2019-04-03T12:46:35.919Z,35.66
2019-04-03T12:47:36.134Z,35.16
2019-04-03T12:48:35.877Z,35.36
2019-04-03T12:49:35.867Z,35.25
2019-04-03T12:50:35.851Z,33.84
2019-04-03T12:51:35.870Z,33.15
2019-04-03T12:52:35.857Z,34.36